Time;durP1;ratioP1;P1;durP2;ratioP2;P2;SDS_P1;SDS_P2;PMS_P1;PMS_P2;Temp;Humidity;BMP_temperature;BMP_pressure;BME280_temperature;BME280_humidity;BME280_pressure;Samples;Min_cycle;Max_cycle;Signal;HPM_P1;HPM_P2
2023/10/21 00:00:23;;;;;;;18.80;8.95;;;;;;;;;;4973815;28;20066;-70
2023/10/21 00:02:50;;;;;;;16.50;9.02;;;;;;;;;;4973685;28;20069;-68
2023/10/21 00:05:17;;;;;;;19.83;9.60;;;;;;;;;;4973509;28;20042;-69
2023/10/21 00:07:43;;;;;;;20.90;9.40;;;;;;;;;;4971871;28;20034;-68
2023/10/21 00:10:09;;;;;;;14.98;7.68;;;;;;;;;;4973461;28;20162;-69
2023/10/21 00:12:35;;;;;;;18.40;8.23;;;;;;;;;;4988280;28;20121;-69
2023/10/21 00:15:02;;;;;;;18.63;8.15;;;;;;;;;;4973358;28;20092;-70
2023/10/21 00:17:28;;;;;;;18.83;7.68;;;;;;;;;;4973289;28;20046;-69
2023/10/21 00:19:54;;;;;;;15.50;8.70;;;;;;;;;;4973622;28;20469;-69
2023/10/21 00:22:19;;;;;;;18.00;9.02;;;;;;;;;;4973733;28;20084;-69
2023/10/21 00:24:46;;;;;;;19.05;7.97;;;;;;;;;;4972577;28;20038;-69
2023/10/21 00:27:12;;;;;;;15.68;8.15;;;;;;;;;;4972961;28;20030;-69
2023/10/21 00:29:38;;;;;;;16.67;8.40;;;;;;;;;;4972963;28;20053;-69
2023/10/21 00:32:05;;;;;;;16.13;8.15;;;;;;;;;;4972490;28;20023;-68
2023/10/21 00:34:31;;;;;;;15.88;7.70;;;;;;;;;;4971684;28;20037;-69
2023/10/21 00:36:57;;;;;;;16.67;8.48;;;;;;;;;;4939922;28;20105;-68
2023/10/21 00:39:23;;;;;;;19.40;9.05;;;;;;;;;;4971858;28;20125;-69
2023/10/21 00:41:48;;;;;;;22.90;8.48;;;;;;;;;;4972942;28;20362;-68
2023/10/21 00:44:15;;;;;;;15.98;7.95;;;;;;;;;;4969408;28;20216;-69
2023/10/21 00:46:42;;;;;;;17.58;8.10;;;;;;;;;;4965614;28;20129;-69
2023/10/21 00:49:08;;;;;;;17.90;8.13;;;;;;;;;;4967391;28;20437;-69
2023/10/21 00:51:35;;;;;;;15.80;7.82;;;;;;;;;;4967351;28;20030;-68
2023/10/21 00:54:03;;;;;;;16.40;8.00;;;;;;;;;;4967632;28;20045;-67
2023/10/21 00:56:29;;;;;;;19.23;8.25;;;;;;;;;;4968598;28;20066;-69
2023/10/21 00:58:55;;;;;;;18.25;8.35;;;;;;;;;;4968807;28;20094;-69
2023/10/21 01:01:21;;;;;;;15.45;8.75;;;;;;;;;;4968416;28;20424;-69
2023/10/21 01:03:47;;;;;;;15.10;7.85;;;;;;;;;;4967530;28;20480;-69
2023/10/21 01:06:14;;;;;;;14.43;7.93;;;;;;;;;;4968104;28;20381;-69
2023/10/21 01:08:41;;;;;;;13.82;7.93;;;;;;;;;;4968435;28;20058;-69
2023/10/21 01:11:08;;;;;;;14.93;7.82;;;;;;;;;;4973633;28;20103;-69
2023/10/21 01:13:34;;;;;;;14.45;8.38;;;;;;;;;;4974213;28;20041;-69
2023/10/21 01:16:00;;;;;;;15.35;8.38;;;;;;;;;;4973553;28;20026;-69
2023/10/21 01:18:29;;;;;;;14.80;7.93;;;;;;;;;;4973791;28;20512;-69
2023/10/21 01:20:54;;;;;;;15.07;8.27;;;;;;;;;;4975714;28;20122;-68
2023/10/21 01:23:20;;;;;;;13.27;7.70;;;;;;;;;;4975444;28;20121;-67
2023/10/21 01:25:46;;;;;;;12.90;7.43;;;;;;;;;;4972328;28;20038;-70
2023/10/21 01:28:12;;;;;;;12.52;7.63;;;;;;;;;;4973202;28;20043;-69
2023/10/21 01:30:39;;;;;;;16.48;8.10;;;;;;;;;;4973465;28;20041;-69
2023/10/21 01:33:04;;;;;;;16.40;8.90;;;;;;;;;;4958065;28;20057;-69
2023/10/21 01:35:30;;;;;;;13.90;7.47;;;;;;;;;;4973550;28;20031;-69
2023/10/21 01:37:56;;;;;;;15.10;7.13;;;;;;;;;;4973683;28;20035;-69
2023/10/21 01:40:21;;;;;;;16.40;8.55;;;;;;;;;;4975130;28;20034;-69
2023/10/21 01:42:47;;;;;;;15.07;7.95;;;;;;;;;;4975666;28;20069;-70
2023/10/21 01:45:14;;;;;;;13.35;7.78;;;;;;;;;;4971856;28;20484;-69
2023/10/21 01:47:40;;;;;;;16.17;8.50;;;;;;;;;;4973297;28;20034;-68
2023/10/21 01:50:09;;;;;;;17.40;8.55;;;;;;;;;;4973123;28;20030;-68
2023/10/21 01:52:36;;;;;;;12.50;7.32;;;;;;;;;;4971515;28;20409;-69
2023/10/21 01:55:06;;;;;;;14.65;7.30;;;;;;;;;;4972194;28;20121;-69
2023/10/21 01:57:32;;;;;;;10.70;6.95;;;;;;;;;;4974638;28;20066;-69
2023/10/21 02:00:09;;;;;;;11.38;6.80;;;;;;;;;;4973363;28;20437;-69
2023/10/21 02:02:41;;;;;;;11.07;6.82;;;;;;;;;;4968586;28;20093;-69
2023/10/21 02:05:07;;;;;;;16.15;7.15;;;;;;;;;;4971312;28;20042;-69
2023/10/21 02:07:37;;;;;;;14.68;8.00;;;;;;;;;;4974432;28;20034;-69
2023/10/21 02:10:05;;;;;;;15.13;7.82;;;;;;;;;;4973401;28;20506;-68
2023/10/21 02:12:31;;;;;;;15.90;7.97;;;;;;;;;;4973059;28;20068;-70
2023/10/21 02:14:57;;;;;;;11.25;7.28;;;;;;;;;;4973195;28;20121;-70
2023/10/21 02:17:23;;;;;;;18.67;7.40;;;;;;;;;;4973033;28;20463;-69
2023/10/21 02:19:58;;;;;;;18.50;7.63;;;;;;;;;;4972648;28;20046;-70
2023/10/21 02:22:27;;;;;;;17.58;8.07;;;;;;;;;;4970108;28;20062;-70
2023/10/21 02:24:53;;;;;;;17.40;8.05;;;;;;;;;;4970013;28;20033;-70
2023/10/21 02:27:20;;;;;;;16.27;7.03;;;;;;;;;;4971201;28;20046;-68
2023/10/21 02:29:45;;;;;;;13.52;7.93;;;;;;;;;;4970445;28;20089;-69
2023/10/21 02:32:11;;;;;;;14.45;7.57;;;;;;;;;;4971290;28;20097;-69
2023/10/21 02:34:38;;;;;;;20.30;8.30;;;;;;;;;;4970251;28;20397;-69
2023/10/21 02:37:04;;;;;;;15.05;8.18;;;;;;;;;;4969785;28;20035;-69
2023/10/21 02:39:29;;;;;;;14.40;8.50;;;;;;;;;;4971747;28;20019;-69
2023/10/21 02:41:55;;;;;;;18.00;8.82;;;;;;;;;;4969915;28;20045;-69
2023/10/21 02:44:21;;;;;;;18.08;8.63;;;;;;;;;;4969876;28;20030;-69
2023/10/21 02:46:48;;;;;;;15.70;8.52;;;;;;;;;;4969508;28;20062;-69
2023/10/21 02:49:14;;;;;;;16.00;7.93;;;;;;;;;;4969882;28;20053;-67
2023/10/21 02:51:41;;;;;;;10.93;7.65;;;;;;;;;;4970982;28;20047;-69
2023/10/21 02:54:07;;;;;;;11.18;7.93;;;;;;;;;;4971684;28;20027;-69
2023/10/21 02:56:34;;;;;;;19.00;8.38;;;;;;;;;;4969664;28;20081;-69
2023/10/21 02:59:00;;;;;;;16.17;7.47;;;;;;;;;;4969500;28;20034;-69
2023/10/21 03:01:26;;;;;;;18.92;8.38;;;;;;;;;;4969686;28;20046;-68
2023/10/21 03:03:52;;;;;;;19.25;8.57;;;;;;;;;;4970517;28;20027;-69
2023/10/21 03:06:21;;;;;;;14.45;7.68;;;;;;;;;;4968890;28;20127;-68
2023/10/21 03:08:47;;;;;;;14.65;8.35;;;;;;;;;;4969517;28;20089;-69
2023/10/21 03:11:14;;;;;;;24.02;9.18;;;;;;;;;;4969659;28;20390;-68
2023/10/21 03:13:40;;;;;;;24.38;9.50;;;;;;;;;;4969163;28;20022;-69
2023/10/21 03:16:13;;;;;;;18.38;7.85;;;;;;;;;;4970426;28;20038;-69
2023/10/21 03:18:40;;;;;;;15.73;7.40;;;;;;;;;;4969553;28;20141;-68
2023/10/21 03:21:07;;;;;;;22.42;6.90;;;;;;;;;;4969297;28;20034;-68
2023/10/21 03:23:33;;;;;;;13.90;6.65;;;;;;;;;;4969073;28;20035;-69
2023/10/21 03:26:00;;;;;;;15.88;6.25;;;;;;;;;;4968998;28;20027;-69
2023/10/21 03:28:27;;;;;;;14.98;5.93;;;;;;;;;;4969645;28;20583;-69
2023/10/21 03:30:56;;;;;;;24.30;7.15;;;;;;;;;;4971152;28;20030;-70
2023/10/21 03:33:26;;;;;;;19.05;6.47;;;;;;;;;;4972871;28;20035;-68
2023/10/21 03:35:53;;;;;;;20.98;7.38;;;;;;;;;;4974254;28;20075;-69
2023/10/21 03:38:20;;;;;;;11.60;5.78;;;;;;;;;;4972886;28;20170;-68
2023/10/21 03:41:07;;;;;;;20.52;5.72;;;;;;;;;;4972894;28;20501;-68
2023/10/21 03:43:34;;;;;;;10.90;5.53;;;;;;;;;;4974268;28;20134;-70
2023/10/21 03:46:08;;;;;;;10.13;5.57;;;;;;;;;;4974063;28;20034;-69
2023/10/21 03:48:34;;;;;;;12.70;5.70;;;;;;;;;;4972811;28;20169;-68
2023/10/21 03:51:04;;;;;;;13.50;5.60;;;;;;;;;;4974014;28;20030;-68
2023/10/21 03:53:31;;;;;;;11.50;5.55;;;;;;;;;;4972802;28;20043;-69
2023/10/21 03:55:56;;;;;;;13.52;5.68;;;;;;;;;;4973994;28;20113;-70
2023/10/21 03:58:22;;;;;;;11.63;5.97;;;;;;;;;;4973665;28;20035;-70
2023/10/21 04:00:48;;;;;;;19.85;7.10;;;;;;;;;;4973799;28;20027;-69
2023/10/21 04:03:13;;;;;;;16.63;6.90;;;;;;;;;;4966331;28;20367;-69
2023/10/21 04:05:39;;;;;;;13.50;6.28;;;;;;;;;;4968988;28;20057;-70
2023/10/21 04:08:05;;;;;;;12.73;5.75;;;;;;;;;;4968871;28;20081;-69
2023/10/21 04:10:33;;;;;;;13.18;5.38;;;;;;;;;;4970201;28;20027;-69
2023/10/21 04:12:59;;;;;;;12.65;6.97;;;;;;;;;;4969739;28;20152;-70
2023/10/21 04:15:25;;;;;;;16.92;6.65;;;;;;;;;;4969109;28;20082;-69
2023/10/21 04:17:51;;;;;;;17.42;6.10;;;;;;;;;;4964430;28;20054;-69
2023/10/21 04:20:16;;;;;;;20.73;7.00;;;;;;;;;;4971516;28;20018;-69
2023/10/21 04:22:43;;;;;;;12.05;5.75;;;;;;;;;;4973137;28;20038;-70
2023/10/21 04:25:10;;;;;;;8.90;5.53;;;;;;;;;;4972435;28;20027;-70
2023/10/21 04:27:36;;;;;;;14.23;6.53;;;;;;;;;;4972841;28;20394;-69
2023/10/21 04:30:03;;;;;;;20.92;6.40;;;;;;;;;;4987946;28;20027;-69
2023/10/21 04:32:30;;;;;;;24.02;6.55;;;;;;;;;;4972982;28;20030;-68
2023/10/21 04:34:57;;;;;;;12.65;5.95;;;;;;;;;;4971609;28;20030;-68
2023/10/21 04:37:23;;;;;;;20.90;7.00;;;;;;;;;;4972591;28;20592;-68
2023/10/21 04:39:48;;;;;;;12.75;6.03;;;;;;;;;;4972584;28;20109;-69
2023/10/21 04:42:14;;;;;;;11.73;5.50;;;;;;;;;;4972725;28;20122;-69
2023/10/21 04:44:40;;;;;;;9.27;5.30;;;;;;;;;;4972296;28;20034;-69
2023/10/21 04:47:05;;;;;;;16.13;5.90;;;;;;;;;;4975901;28;20027;-70
2023/10/21 04:49:31;;;;;;;35.28;9.77;;;;;;;;;;4972207;28;20452;-70
2023/10/21 04:51:57;;;;;;;22.13;8.48;;;;;;;;;;4968653;28;20034;-70
2023/10/21 04:54:22;;;;;;;23.17;7.93;;;;;;;;;;4973103;28;20058;-70
2023/10/21 04:56:48;;;;;;;15.38;7.90;;;;;;;;;;4972211;28;20060;-69
2023/10/21 04:59:14;;;;;;;18.00;8.05;;;;;;;;;;4972819;28;20448;-69
2023/10/21 05:01:40;;;;;;;15.15;6.80;;;;;;;;;;4972745;28;20035;-69
2023/10/21 05:04:06;;;;;;;14.95;6.65;;;;;;;;;;4972710;28;20355;-69
2023/10/21 05:06:31;;;;;;;13.38;6.43;;;;;;;;;;4971536;28;20493;-69
2023/10/21 05:08:58;;;;;;;15.85;6.75;;;;;;;;;;4977727;28;20473;-70
2023/10/21 05:11:24;;;;;;;14.55;6.05;;;;;;;;;;4971777;28;20038;-70
2023/10/21 05:13:49;;;;;;;18.45;6.32;;;;;;;;;;4971923;28;20361;-70
2023/10/21 05:16:15;;;;;;;10.90;6.22;;;;;;;;;;4969584;28;20370;-69
2023/10/21 05:18:42;;;;;;;15.63;5.70;;;;;;;;;;4971539;28;20126;-70
2023/10/21 05:21:08;;;;;;;14.57;5.93;;;;;;;;;;4971427;28;20026;-71
2023/10/21 05:23:34;;;;;;;11.07;5.53;;;;;;;;;;4971400;28;20053;-70
2023/10/21 05:26:00;;;;;;;17.13;6.72;;;;;;;;;;4970561;28;20038;-70
2023/10/21 05:28:25;;;;;;;12.43;5.75;;;;;;;;;;4971076;28;20027;-70
2023/10/21 05:30:52;;;;;;;10.50;5.60;;;;;;;;;;4971561;28;20038;-70
2023/10/21 05:33:17;;;;;;;14.98;5.13;;;;;;;;;;4971288;28;20037;-70
2023/10/21 05:35:43;;;;;;;11.95;5.97;;;;;;;;;;4971430;28;20030;-70
2023/10/21 05:38:09;;;;;;;15.27;5.90;;;;;;;;;;4970900;28;20453;-70
2023/10/21 05:40:35;;;;;;;12.50;5.40;;;;;;;;;;4970774;28;20045;-70
2023/10/21 05:43:01;;;;;;;20.55;6.55;;;;;;;;;;4971235;28;20106;-70
2023/10/21 05:45:27;;;;;;;15.25;5.55;;;;;;;;;;4966760;28;20031;-70
2023/10/21 05:47:53;;;;;;;9.20;4.32;;;;;;;;;;4964863;28;20085;-70
2023/10/21 05:50:21;;;;;;;13.35;5.88;;;;;;;;;;4963762;28;20042;-71
2023/10/21 05:52:47;;;;;;;12.43;4.88;;;;;;;;;;4966001;28;20022;-70
2023/10/21 05:55:13;;;;;;;10.98;4.93;;;;;;;;;;4962601;28;20082;-71
2023/10/21 05:57:39;;;;;;;10.65;4.25;;;;;;;;;;4975085;28;20109;-70
2023/10/21 06:00:08;;;;;;;14.13;3.85;;;;;;;;;;4974566;28;20465;-71
2023/10/21 06:02:34;;;;;;;14.52;4.30;;;;;;;;;;4967821;28;20033;-70
2023/10/21 06:05:00;;;;;;;10.98;4.30;;;;;;;;;;4967072;28;20042;-70
2023/10/21 06:07:25;;;;;;;11.50;4.72;;;;;;;;;;4967923;28;20396;-70
2023/10/21 06:09:53;;;;;;;14.52;4.45;;;;;;;;;;4970591;28;20042;-70
2023/10/21 06:12:19;;;;;;;14.77;5.93;;;;;;;;;;4975092;28;20034;-70
2023/10/21 06:14:44;;;;;;;16.95;4.60;;;;;;;;;;4967314;28;20030;-70
2023/10/21 06:17:10;;;;;;;13.00;5.35;;;;;;;;;;4974769;28;20023;-70
2023/10/21 06:19:37;;;;;;;15.63;4.88;;;;;;;;;;4975149;28;20489;-70
2023/10/21 06:22:03;;;;;;;15.05;4.22;;;;;;;;;;4975157;28;20101;-69
2023/10/21 06:24:30;;;;;;;12.48;4.53;;;;;;;;;;4971188;28;20038;-71
2023/10/21 06:26:56;;;;;;;16.25;5.25;;;;;;;;;;4974447;28;20103;-70
2023/10/21 06:29:23;;;;;;;13.10;4.60;;;;;;;;;;4973528;28;20058;-70
2023/10/21 06:31:50;;;;;;;12.20;4.80;;;;;;;;;;4979412;28;20030;-70
2023/10/21 06:34:15;;;;;;;11.77;4.70;;;;;;;;;;4974730;28;20031;-73
2023/10/21 06:36:42;;;;;;;16.17;4.45;;;;;;;;;;4979473;28;20511;-72
2023/10/21 06:39:08;;;;;;;16.25;4.90;;;;;;;;;;4973692;28;20093;-70
2023/10/21 06:41:33;;;;;;;16.05;5.22;;;;;;;;;;4973464;28;20027;-71
2023/10/21 06:44:00;;;;;;;19.77;4.97;;;;;;;;;;4967817;28;20126;-70
2023/10/21 06:46:27;;;;;;;14.55;5.22;;;;;;;;;;4973256;28;20023;-71
2023/10/21 06:48:54;;;;;;;23.75;6.18;;;;;;;;;;4972265;28;20085;-72
2023/10/21 06:51:19;;;;;;;13.77;5.47;;;;;;;;;;4973834;28;20496;-70
2023/10/21 06:53:45;;;;;;;19.48;6.55;;;;;;;;;;4973806;28;20066;-70
2023/10/21 06:56:14;;;;;;;18.27;5.50;;;;;;;;;;4973362;28;20015;-72
2023/10/21 06:58:40;;;;;;;14.15;5.22;;;;;;;;;;4973733;28;20041;-71
2023/10/21 07:01:07;;;;;;;12.15;5.30;;;;;;;;;;4965624;28;20043;-73
2023/10/21 07:03:33;;;;;;;15.25;5.28;;;;;;;;;;4966100;28;20041;-71
2023/10/21 07:06:00;;;;;;;15.93;4.72;;;;;;;;;;4961391;28;20043;-71
2023/10/21 07:08:26;;;;;;;13.55;5.03;;;;;;;;;;4969304;28;20043;-74
2023/10/21 07:10:53;;;;;;;15.68;5.32;;;;;;;;;;4973670;28;20113;-74
2023/10/21 07:13:19;;;;;;;10.88;4.45;;;;;;;;;;4971463;28;20031;-73
2023/10/21 07:15:45;;;;;;;12.52;5.72;;;;;;;;;;4967976;28;20059;-72
2023/10/21 07:18:11;;;;;;;12.35;5.20;;;;;;;;;;4952518;29;20078;-71
2023/10/21 07:20:36;;;;;;;13.25;5.05;;;;;;;;;;4954457;28;20106;-72
2023/10/21 07:23:02;;;;;;;13.45;5.40;;;;;;;;;;4952561;29;20655;-72
2023/10/21 07:25:28;;;;;;;13.45;5.35;;;;;;;;;;4953681;28;20078;-72
2023/10/21 07:27:54;;;;;;;13.57;5.10;;;;;;;;;;4953755;29;20035;-73
2023/10/21 07:30:23;;;;;;;20.00;5.35;;;;;;;;;;4954857;28;20517;-72
2023/10/21 07:32:49;;;;;;;14.05;5.03;;;;;;;;;;4954534;28;20485;-74
2023/10/21 07:35:16;;;;;;;13.82;5.55;;;;;;;;;;4954814;28;20019;-71
2023/10/21 07:37:44;;;;;;;13.60;5.97;;;;;;;;;;4954308;28;20071;-73
2023/10/21 07:40:12;;;;;;;12.07;5.63;;;;;;;;;;4954332;28;20045;-70
2023/10/21 07:42:37;;;;;;;19.30;6.00;;;;;;;;;;4954259;29;20567;-69
2023/10/21 07:45:04;;;;;;;11.57;5.15;;;;;;;;;;4952766;29;20058;-71
2023/10/21 07:47:30;;;;;;;10.48;5.40;;;;;;;;;;4954250;28;20429;-72
2023/10/21 07:49:56;;;;;;;15.95;5.35;;;;;;;;;;4953947;28;20039;-72
2023/10/21 07:52:22;;;;;;;18.42;5.90;;;;;;;;;;4954017;29;20501;-73
2023/10/21 07:54:49;;;;;;;16.70;5.90;;;;;;;;;;4953771;28;20027;-71
2023/10/21 07:57:15;;;;;;;11.90;4.68;;;;;;;;;;4953660;28;20069;-71
2023/10/21 07:59:41;;;;;;;10.98;5.53;;;;;;;;;;4954232;28;20501;-71
2023/10/21 08:02:06;;;;;;;13.23;5.32;;;;;;;;;;4954371;28;20458;-71
2023/10/21 08:04:32;;;;;;;12.32;5.50;;;;;;;;;;4953698;28;20031;-72
2023/10/21 08:06:58;;;;;;;17.17;6.82;;;;;;;;;;4953815;28;20062;-71
2023/10/21 08:09:24;;;;;;;10.75;5.90;;;;;;;;;;4954077;28;20035;-72
2023/10/21 08:11:51;;;;;;;18.25;7.03;;;;;;;;;;4953964;29;20050;-72
2023/10/21 08:14:16;;;;;;;18.38;7.05;;;;;;;;;;4953398;28;20094;-71
2023/10/21 08:16:42;;;;;;;11.93;6.95;;;;;;;;;;4952283;28;20114;-70
2023/10/21 08:19:08;;;;;;;16.85;8.05;;;;;;;;;;4952508;28;20031;-71
2023/10/21 08:21:34;;;;;;;16.77;6.53;;;;;;;;;;4952154;28;20135;-71
2023/10/21 08:24:03;;;;;;;15.30;6.97;;;;;;;;;;4952485;28;20584;-71
2023/10/21 08:26:30;;;;;;;19.52;6.63;;;;;;;;;;4952296;28;20043;-70
2023/10/21 08:28:55;;;;;;;17.42;6.10;;;;;;;;;;4952558;28;20387;-71
2023/10/21 08:31:22;;;;;;;15.77;6.57;;;;;;;;;;4953524;28;20207;-72
2023/10/21 08:33:48;;;;;;;14.60;6.88;;;;;;;;;;4953490;28;20023;-72
2023/10/21 08:36:21;;;;;;;13.50;7.00;;;;;;;;;;4953749;28;20374;-72
2023/10/21 08:38:50;;;;;;;10.07;5.68;;;;;;;;;;4953642;29;20488;-70
2023/10/21 08:41:16;;;;;;;13.30;6.07;;;;;;;;;;4953345;28;20027;-71
2023/10/21 08:43:46;;;;;;;24.15;6.90;;;;;;;;;;4953378;29;20049;-70
2023/10/21 08:46:14;;;;;;;15.85;5.90;;;;;;;;;;4967872;28;20043;-71
2023/10/21 08:48:43;;;;;;;12.20;5.60;;;;;;;;;;4970803;28;20089;-70
2023/10/21 08:51:10;;;;;;;14.40;6.25;;;;;;;;;;4954735;28;20035;-70
2023/10/21 08:53:40;;;;;;;13.77;6.10;;;;;;;;;;4953468;28;20106;-71
2023/10/21 08:56:06;;;;;;;15.38;5.32;;;;;;;;;;4982732;28;20472;-69
2023/10/21 08:58:31;;;;;;;14.02;5.80;;;;;;;;;;4976791;28;20057;-70
2023/10/21 09:00:59;;;;;;;13.98;6.72;;;;;;;;;;4971921;28;20086;-70
2023/10/21 09:03:26;;;;;;;14.35;6.65;;;;;;;;;;4971825;28;20042;-70
2023/10/21 09:06:14;;;;;;;14.75;6.97;;;;;;;;;;4960999;28;20038;-70
2023/10/21 09:08:41;;;;;;;12.15;5.88;;;;;;;;;;4963537;28;20121;-70
2023/10/21 09:11:08;;;;;;;15.07;6.97;;;;;;;;;;4957746;28;20062;-71
2023/10/21 09:13:35;;;;;;;18.95;7.20;;;;;;;;;;4953093;29;20035;-70
2023/10/21 09:16:19;;;;;;;15.10;7.90;;;;;;;;;;4953109;28;20035;-70
2023/10/21 09:19:00;;;;;;;14.07;7.85;;;;;;;;;;4953703;29;20271;-71
2023/10/21 09:21:45;;;;;;;15.05;7.85;;;;;;;;;;4952919;28;20036;-71
2023/10/21 09:24:22;;;;;;;18.55;8.23;;;;;;;;;;4952771;28;20065;-70
2023/10/21 09:26:49;;;;;;;21.77;8.98;;;;;;;;;;4952766;29;20040;-71
2023/10/21 09:29:18;;;;;;;16.25;7.47;;;;;;;;;;4953443;28;20405;-72
2023/10/21 09:31:54;;;;;;;13.88;8.07;;;;;;;;;;4956532;28;20504;-70
2023/10/21 09:34:31;;;;;;;28.45;8.07;;;;;;;;;;4956769;29;20045;-70
2023/10/21 09:36:58;;;;;;;16.88;7.65;;;;;;;;;;4956427;28;20039;-70
2023/10/21 09:39:26;;;;;;;13.32;6.03;;;;;;;;;;4956516;28;20118;-70
2023/10/21 09:41:52;;;;;;;18.52;6.00;;;;;;;;;;4956660;28;20042;-71
2023/10/21 09:44:19;;;;;;;15.43;6.25;;;;;;;;;;4956720;28;20114;-69
2023/10/21 09:46:46;;;;;;;14.75;5.50;;;;;;;;;;4956399;28;20083;-69
2023/10/21 09:49:16;;;;;;;9.38;4.88;;;;;;;;;;4956441;28;20023;-71
2023/10/21 09:52:04;;;;;;;15.60;4.95;;;;;;;;;;4956671;28;20039;-70
2023/10/21 09:54:44;;;;;;;15.18;5.30;;;;;;;;;;4956386;29;20063;-69
2023/10/21 09:57:11;;;;;;;13.80;4.93;;;;;;;;;;4956188;28;20111;-69
2023/10/21 09:59:41;;;;;;;11.35;4.60;;;;;;;;;;4956371;28;20499;-71
2023/10/21 10:02:07;;;;;;;18.70;4.70;;;;;;;;;;4954435;29;20141;-69
2023/10/21 10:04:35;;;;;;;14.85;5.22;;;;;;;;;;4956196;28;20458;-71
2023/10/21 10:07:06;;;;;;;16.63;5.57;;;;;;;;;;4967784;28;20101;-69
2023/10/21 10:09:39;;;;;;;12.20;5.47;;;;;;;;;;4991499;28;20038;-71
2023/10/21 10:12:12;;;;;;;18.73;5.53;;;;;;;;;;4976507;28;20544;-71
2023/10/21 10:14:38;;;;;;;17.42;5.65;;;;;;;;;;4971687;28;20047;-71
2023/10/21 10:17:06;;;;;;;14.05;5.72;;;;;;;;;;4968558;28;20024;-71
2023/10/21 10:19:39;;;;;;;17.13;5.72;;;;;;;;;;4975230;28;20122;-71
2023/10/21 10:22:19;;;;;;;14.65;5.50;;;;;;;;;;4963863;28;20105;-72
2023/10/21 10:24:55;;;;;;;12.25;5.35;;;;;;;;;;4974308;28;20041;-71
2023/10/21 10:27:25;;;;;;;15.05;5.03;;;;;;;;;;4974417;28;20516;-71
2023/10/21 10:29:51;;;;;;;11.82;4.93;;;;;;;;;;4975185;28;20587;-72
2023/10/21 10:32:20;;;;;;;11.57;5.32;;;;;;;;;;4972667;28;20027;-72
2023/10/21 10:34:52;;;;;;;17.90;5.70;;;;;;;;;;4973879;28;20049;-73
2023/10/21 10:37:33;;;;;;;13.43;5.35;;;;;;;;;;4972292;28;20390;-70
2023/10/21 10:40:05;;;;;;;15.82;5.22;;;;;;;;;;4960342;28;20023;-71
2023/10/21 10:42:35;;;;;;;13.18;4.60;;;;;;;;;;4973827;28;20419;-71
2023/10/21 10:45:01;;;;;;;12.70;4.15;;;;;;;;;;4972866;28;20039;-71
2023/10/21 10:47:27;;;;;;;15.07;5.18;;;;;;;;;;4973565;28;20034;-72
2023/10/21 10:49:57;;;;;;;12.30;4.82;;;;;;;;;;4974148;28;20042;-71
2023/10/21 10:52:33;;;;;;;12.60;4.57;;;;;;;;;;4973074;28;20051;-72
2023/10/21 10:54:59;;;;;;;12.73;5.32;;;;;;;;;;4956238;28;20070;-72
2023/10/21 10:57:28;;;;;;;13.18;4.90;;;;;;;;;;4952507;29;20062;-70
2023/10/21 10:59:54;;;;;;;14.32;4.85;;;;;;;;;;4954542;29;20043;-72
2023/10/21 11:02:20;;;;;;;11.70;5.35;;;;;;;;;;4953592;28;20027;-72
2023/10/21 11:04:49;;;;;;;9.80;4.22;;;;;;;;;;4954727;28;20087;-71
2023/10/21 11:07:19;;;;;;;12.57;4.78;;;;;;;;;;4954898;28;20031;-72
2023/10/21 11:09:46;;;;;;;17.60;4.80;;;;;;;;;;4954956;28;20102;-72
2023/10/21 11:12:14;;;;;;;13.65;4.47;;;;;;;;;;4954772;28;20434;-70
2023/10/21 11:14:41;;;;;;;11.50;5.25;;;;;;;;;;4954775;29;20474;-73
2023/10/21 11:17:07;;;;;;;13.88;4.85;;;;;;;;;;4954465;28;20131;-71
2023/10/21 11:19:33;;;;;;;12.70;4.53;;;;;;;;;;4954564;28;20039;-72
2023/10/21 11:21:59;;;;;;;13.15;5.60;;;;;;;;;;4965272;28;20035;-73
2023/10/21 11:24:26;;;;;;;12.63;5.45;;;;;;;;;;4972423;28;20045;-72
2023/10/21 11:26:52;;;;;;;16.40;4.50;;;;;;;;;;4974675;28;20059;-71
2023/10/21 11:29:18;;;;;;;8.35;3.92;;;;;;;;;;4972725;28;20027;-73
2023/10/21 11:31:45;;;;;;;12.23;4.40;;;;;;;;;;4973050;28;20104;-71
2023/10/21 11:34:16;;;;;;;10.38;3.72;;;;;;;;;;4974344;28;20030;-72
2023/10/21 11:36:50;;;;;;;10.70;3.90;;;;;;;;;;4974132;28;20511;-72
2023/10/21 11:39:17;;;;;;;16.08;6.97;;;;;;;;;;4974420;28;20035;-71
2023/10/21 11:41:48;;;;;;;13.20;5.00;;;;;;;;;;4974154;28;20107;-70
2023/10/21 11:44:24;;;;;;;15.50;5.15;;;;;;;;;;4973934;28;20077;-72
2023/10/21 11:46:50;;;;;;;13.40;4.43;;;;;;;;;;4973857;28;20477;-71
2023/10/21 11:49:15;;;;;;;13.50;5.15;;;;;;;;;;4973943;28;20109;-72
2023/10/21 11:51:46;;;;;;;11.35;4.57;;;;;;;;;;4974056;28;20114;-71
2023/10/21 11:54:32;;;;;;;15.70;5.53;;;;;;;;;;4973651;28;20046;-70
2023/10/21 12:32:35;;;;;;;21.15;6.97;;;;;;;;;;4973053;28;20041;-71
2023/10/21 12:36:40;;;;;;;11.27;4.30;;;;;;;;;;4972254;28;20030;-70
2023/10/21 12:41:41;;;;;;;18.88;8.57;;;;;;;;;;4992455;28;20068;-71
2023/10/21 12:44:13;;;;;;;21.98;11.80;;;;;;;;;;4979739;28;20358;-71
2023/10/21 12:46:42;;;;;;;14.00;7.93;;;;;;;;;;4972633;28;20374;-70
2023/10/21 12:49:17;;;;;;;25.98;14.68;;;;;;;;;;4973121;28;20050;-70
2023/10/21 12:51:43;;;;;;;16.17;4.50;;;;;;;;;;4973744;28;20034;-71
2023/10/21 12:54:11;;;;;;;14.10;4.50;;;;;;;;;;4972986;28;20027;-70
2023/10/21 12:56:40;;;;;;;13.77;4.85;;;;;;;;;;4972394;28;20114;-73
2023/10/21 12:59:06;;;;;;;14.32;4.90;;;;;;;;;;4972259;28;20033;-70
2023/10/21 13:01:38;;;;;;;14.55;5.63;;;;;;;;;;4972559;28;20042;-69
2023/10/21 13:04:04;;;;;;;14.15;4.75;;;;;;;;;;4972277;28;20031;-68
2023/10/21 13:06:32;;;;;;;12.00;4.63;;;;;;;;;;4970787;28;20101;-70
2023/10/21 13:08:58;;;;;;;17.38;5.05;;;;;;;;;;4972504;28;20039;-68
2023/10/21 13:11:24;;;;;;;12.50;4.38;;;;;;;;;;4972503;28;20137;-70
2023/10/21 13:13:52;;;;;;;14.40;4.53;;;;;;;;;;4972111;28;20038;-71
2023/10/21 13:16:18;;;;;;;14.27;4.28;;;;;;;;;;4970976;28;20027;-69
2023/10/21 13:18:44;;;;;;;17.13;4.75;;;;;;;;;;4972706;28;20515;-69
2023/10/21 13:21:10;;;;;;;13.13;4.53;;;;;;;;;;4970443;28;20062;-72
2023/10/21 13:23:35;;;;;;;10.73;4.28;;;;;;;;;;4970641;28;20137;-69
2023/10/21 13:26:06;;;;;;;16.15;4.28;;;;;;;;;;4971047;28;20034;-69
2023/10/21 13:28:36;;;;;;;10.82;3.92;;;;;;;;;;4972511;28;20093;-70
2023/10/21 13:31:06;;;;;;;11.63;4.65;;;;;;;;;;4971310;28;20039;-68
2023/10/21 13:33:31;;;;;;;15.93;5.20;;;;;;;;;;4972455;28;20035;-71
2023/10/21 13:35:57;;;;;;;15.80;5.25;;;;;;;;;;4972268;28;20100;-69
2023/10/21 13:38:23;;;;;;;13.43;4.60;;;;;;;;;;4971399;28;20219;-69
2023/10/21 13:40:52;;;;;;;16.42;5.30;;;;;;;;;;4995672;28;20514;-70
2023/10/21 13:43:18;;;;;;;12.48;5.03;;;;;;;;;;4991031;28;20457;-69
2023/10/21 13:45:44;;;;;;;14.90;4.63;;;;;;;;;;4970912;28;20126;-69
2023/10/21 13:48:11;;;;;;;17.60;5.38;;;;;;;;;;4971605;28;20161;-70
2023/10/21 13:50:38;;;;;;;15.05;4.75;;;;;;;;;;4965664;28;20047;-67
2023/10/21 13:53:11;;;;;;;13.60;5.18;;;;;;;;;;4971700;28;20105;-69
2023/10/21 13:55:39;;;;;;;19.90;5.07;;;;;;;;;;4971674;28;20031;-68
2023/10/21 13:58:06;;;;;;;11.48;5.47;;;;;;;;;;4971090;28;20608;-70
2023/10/21 14:03:20;;;;;;;10.23;4.55;;;;;;;;;;4972039;28;20502;-69
2023/10/21 14:05:50;;;;;;;14.63;5.13;;;;;;;;;;4971473;28;20405;-70
2023/10/21 14:08:18;;;;;;;16.02;5.60;;;;;;;;;;4970387;28;20061;-69
2023/10/21 14:10:48;;;;;;;15.13;5.53;;;;;;;;;;4971539;28;20034;-70
2023/10/21 14:13:19;;;;;;;13.30;4.93;;;;;;;;;;4971412;28;20042;-70
2023/10/21 14:15:49;;;;;;;22.98;5.70;;;;;;;;;;4971452;28;20453;-68
2023/10/21 14:18:15;;;;;;;16.63;5.32;;;;;;;;;;4973945;28;20031;-70
2023/10/21 14:20:43;;;;;;;11.48;4.63;;;;;;;;;;4974799;28;20034;-68
2023/10/21 14:23:16;;;;;;;15.75;4.93;;;;;;;;;;4974444;28;20031;-69
2023/10/21 14:25:44;;;;;;;14.13;4.65;;;;;;;;;;4974342;28;20129;-69
2023/10/21 14:28:13;;;;;;;17.88;5.40;;;;;;;;;;4974947;28;20105;-70
2023/10/21 14:30:49;;;;;;;12.60;4.75;;;;;;;;;;4974777;28;20035;-68
2023/10/21 14:33:17;;;;;;;11.55;4.40;;;;;;;;;;4975496;28;20118;-69
2023/10/21 14:35:51;;;;;;;13.82;4.95;;;;;;;;;;4974664;28;20085;-68
2023/10/21 14:38:17;;;;;;;16.42;4.75;;;;;;;;;;4975199;28;20460;-69
2023/10/21 14:40:44;;;;;;;17.52;5.28;;;;;;;;;;4974774;28;20448;-69
2023/10/21 14:43:11;;;;;;;11.77;5.60;;;;;;;;;;4989026;28;20113;-68
2023/10/21 14:45:39;;;;;;;15.75;5.25;;;;;;;;;;4972596;28;20050;-68
2023/10/21 14:48:07;;;;;;;14.23;4.90;;;;;;;;;;4974572;28;20168;-69
2023/10/21 14:50:34;;;;;;;12.00;5.55;;;;;;;;;;4975015;28;20053;-69
2023/10/21 14:53:03;;;;;;;12.95;6.35;;;;;;;;;;4972007;28;20041;-69
2023/10/21 14:55:30;;;;;;;13.95;5.05;;;;;;;;;;4973490;28;20027;-69
2023/10/21 14:57:57;;;;;;;14.95;5.65;;;;;;;;;;4974021;28;20381;-69
2023/10/21 15:00:23;;;;;;;16.48;5.00;;;;;;;;;;4974941;28;20477;-70
2023/10/21 15:02:50;;;;;;;16.15;5.18;;;;;;;;;;4974400;28;20030;-69
2023/10/21 15:05:17;;;;;;;11.48;5.43;;;;;;;;;;4973965;28;20046;-69
2023/10/21 15:07:43;;;;;;;17.92;5.47;;;;;;;;;;4974863;28;20176;-70
2023/10/21 15:10:10;;;;;;;17.10;6.20;;;;;;;;;;4974527;28;20031;-69
2023/10/21 15:12:39;;;;;;;15.05;5.03;;;;;;;;;;4973968;28;20058;-68
2023/10/21 15:15:10;;;;;;;13.43;6.10;;;;;;;;;;4973435;28;20061;-68